METAR AND TAF INFORMATION
METAR FOR EPSY
ADDS - METARS form results

(1033 UTC 23 January 2020)
Data provider http://aviationweather.gov/metar/data/
 
METAR text: EPSY 231030Z 26008KT CAVOK 03/M02 Q1029
Conditions at: EPSY (SZYMANY , PL) observed 1030 UTC 23 January 2020
Temperature: 3.0°C (37°F)
Dewpoint: -2.0°C (28°F) [RH = 70%]
Pressure (altimeter): 30.38 inches Hg (1029.0 mb)
Winds: from the W (260 degrees) at 9 MPH (8 knots; 4.1 m/s)
Visibility: 6 or more miles (10+ km)
Ceiling: ceiling and visibility are OK
Clouds: unknown
Weather: no significant weather observed at this time

METAR text: EPSY 231000Z 27007KT 230V300 CAVOK 02/M02 Q1029
Conditions at: EPSY (SZYMANY , PL) observed 1000 UTC 23 January 2020
Temperature: 2.0°C (36°F)
Dewpoint: -2.0°C (28°F) [RH = 75%]
Pressure (altimeter): 30.38 inches Hg (1029.0 mb)
Winds: from the W (270 degrees) at 8 MPH (7 knots; 3.6 m/s)
Visibility: 6 or more miles (10+ km)
Ceiling: ceiling and visibility are OK
Clouds: unknown
Weather: no significant weather observed at this time

Forecast for: EPSY (SZYMANY , PL)
Text: TAF EPSY 230830Z 2309/2318 27008KT CAVOK
Forecast period: 0900 to 1000 UTC 23 January 2020
Forecast type: FROM: standard forecast or significant change
Winds: from the W (270 degrees) at 9 MPH (8 knots; 4.1 m/s)
Visibility: 6 or more miles 10+ km)
Ceiling: unknown
Clouds: missing
Weather: NSW  (no significant weather)
Text: BECMG 2310/2313 SCT010 BKN017
Forecast period: 1000 to 1500 UTC 23 January 2020
Forecast type: BECOMING: Conditions expected to become as follows by 1300 UTC 23 January 2020
Winds: from the W (270 degrees) at 9 MPH (8 knots; 4.1 m/s)
Visibility: 6 or more miles 10+ km)
Ceiling: 1700 feet AGL
Clouds: scattered clouds at 1000 feet AGL
broken clouds at 1700 feet AGL
Weather: NSW  (no significant weather)
Text: BECMG 2315/2318 4000 BR BKN008
Forecast period: 1500 to 1800 UTC 23 January 2020
Forecast type: BECOMING: Conditions expected to become as follows by 1800 UTC 23 January 2020
Winds: from the W (270 degrees) at 9 MPH (8 knots; 4.1 m/s)
Visibility: 2.49 miles (4.01 km)
Ceiling: 800 feet AGL
Clouds: broken clouds at 800 feet AGL
Weather: BR  (mist)

 AIRPORT MAP

 RUNWAY INFORMATION
Runway 02 Runway length 6562 ft Runway width 197 ft
Runway elevation 438 ft Runway displaced threshold 0 ft Runway heading 19
Runway 20 Runway length 6562 ft Runway width 197 ft
Runway elevation 462 ft Runway displaced threshold 0 ft Runway heading 199

 AIRPORT FREQUENCIES
Type TWR Name SZCZYTNO I Frequency 118.025 MHZ

 AIRPORT NEAR NAVIGATION AIDS
Type NDB Name Szczytno Frequency 288 KHZ



Powered by Virtual Airlines Manager [v2.6.2]